createdAt,value
2023-04-26T00:01:54.957Z,10.35
2023-04-26T00:04:21.626Z,9.20
2023-04-26T00:06:49.267Z,8.25
2023-04-26T00:09:15.958Z,9.00
2023-04-26T00:11:42.399Z,8.18
2023-04-26T00:14:09.177Z,10.05
2023-04-26T00:16:35.959Z,10.25
2023-04-26T00:19:02.561Z,9.55
2023-04-26T00:21:29.015Z,11.57
2023-04-26T00:23:55.857Z,11.73
2023-04-26T00:26:22.582Z,7.82
2023-04-26T00:28:49.059Z,9.63
2023-04-26T00:31:16.609Z,12.77
2023-04-26T00:33:44.118Z,8.10
2023-04-26T00:36:10.943Z,10.05
2023-04-26T00:38:37.404Z,9.90
2023-04-26T00:41:04.068Z,11.15
2023-04-26T00:43:30.653Z,9.15
2023-04-26T00:45:57.183Z,13.00
2023-04-26T00:48:23.666Z,9.93
2023-04-26T00:50:50.473Z,10.00
2023-04-26T00:53:17.901Z,13.50
2023-04-26T00:55:45.207Z,11.82
2023-04-26T00:58:11.782Z,10.98
2023-04-26T01:00:38.481Z,9.95
2023-04-26T01:03:05.232Z,11.00
2023-04-26T01:05:32.101Z,12.25
2023-04-26T01:07:59.847Z,11.68
2023-04-26T01:10:28.275Z,12.60
2023-04-26T01:12:54.870Z,15.27
2023-04-26T01:15:21.598Z,12.15
2023-04-26T01:17:49.730Z,9.18
2023-04-26T01:20:16.226Z,9.38
2023-04-26T01:22:42.660Z,12.07
2023-04-26T01:25:12.112Z,14.05
2023-04-26T01:27:38.889Z,12.27
2023-04-26T01:30:06.145Z,11.40
2023-04-26T01:32:32.678Z,11.38
2023-04-26T01:35:00.576Z,17.85
2023-04-26T01:37:27.089Z,12.50
2023-04-26T01:39:53.525Z,13.20
2023-04-26T01:42:20.119Z,9.45
2023-04-26T01:44:46.733Z,10.45
2023-04-26T01:47:13.177Z,15.45
2023-04-26T01:49:39.723Z,11.85
2023-04-26T01:52:06.180Z,16.08
2023-04-26T01:54:32.576Z,14.02
2023-04-26T01:56:59.989Z,10.68
2023-04-26T01:59:27.633Z,13.75
2023-04-26T02:01:54.178Z,12.82
2023-04-26T02:04:20.658Z,12.45
2023-04-26T02:06:47.087Z,14.00
2023-04-26T02:09:13.587Z,11.52
2023-04-26T02:11:40.253Z,12.65
2023-04-26T02:14:06.784Z,18.63
2023-04-26T02:16:33.523Z,10.30
2023-04-26T02:19:00.155Z,13.15
2023-04-26T02:21:28.182Z,14.70
2023-04-26T02:23:54.840Z,15.30
2023-04-26T02:26:21.402Z,13.60
2023-04-26T02:28:47.803Z,15.00
2023-04-26T02:31:14.390Z,14.15
2023-04-26T02:33:41.016Z,13.40
2023-04-26T02:36:07.813Z,12.00
2023-04-26T02:38:36.717Z,14.57
2023-04-26T02:41:04.864Z,14.13
2023-04-26T02:43:31.733Z,10.13
2023-04-26T02:46:01.463Z,10.73
2023-04-26T02:48:29.685Z,11.18
2023-04-26T02:50:57.058Z,12.10
2023-04-26T02:53:23.676Z,13.60
2023-04-26T02:55:50.154Z,9.15
2023-04-26T02:58:17.377Z,12.38
2023-04-26T03:00:50.553Z,13.60
2023-04-26T03:03:17.962Z,13.65
2023-04-26T03:05:46.075Z,12.80
2023-04-26T03:08:12.628Z,13.63
2023-04-26T03:10:39.178Z,12.88
2023-04-26T03:13:05.775Z,16.45
2023-04-26T03:15:32.191Z,13.95
2023-04-26T03:17:59.284Z,14.07
2023-04-26T03:20:26.947Z,15.00
2023-04-26T03:22:53.527Z,13.75
2023-04-26T03:25:20.064Z,16.85
2023-04-26T03:27:46.783Z,20.27
2023-04-26T03:30:14.490Z,16.48
2023-04-26T03:32:42.824Z,17.83
2023-04-26T03:35:10.257Z,23.20
2023-04-26T03:37:39.746Z,19.42
2023-04-26T03:40:09.386Z,23.05
2023-04-26T03:42:38.850Z,19.77
2023-04-26T03:45:05.872Z,19.40
2023-04-26T03:47:32.407Z,24.42
2023-04-26T03:49:58.927Z,24.27
2023-04-26T03:52:25.378Z,19.58
2023-04-26T03:54:51.951Z,24.92
2023-04-26T03:57:18.707Z,21.88
2023-04-26T03:59:45.203Z,24.25
2023-04-26T04:02:11.768Z,23.05
2023-04-26T04:04:38.426Z,23.38
2023-04-26T04:07:04.939Z,21.88
2023-04-26T04:09:32.877Z,23.38
2023-04-26T04:11:59.349Z,25.55
2023-04-26T04:14:26.590Z,26.75
2023-04-26T04:16:53.096Z,23.23
2023-04-26T04:19:19.875Z,20.30
2023-04-26T04:21:47.043Z,19.65
2023-04-26T04:24:13.870Z,17.67
2023-04-26T04:26:40.341Z,22.73
2023-04-26T04:29:09.261Z,25.00
2023-04-26T04:31:37.540Z,24.40
2023-04-26T04:34:04.238Z,21.00
2023-04-26T04:36:31.283Z,25.17
2023-04-26T04:38:58.161Z,22.35
2023-04-26T04:41:24.662Z,17.95
2023-04-26T04:43:51.483Z,20.17
2023-04-26T04:46:18.021Z,20.83
2023-04-26T04:48:44.944Z,20.73
2023-04-26T04:51:11.985Z,22.92
2023-04-26T04:53:38.771Z,22.55
2023-04-26T04:56:05.919Z,22.80
2023-04-26T04:58:32.438Z,27.40
2023-04-26T05:01:01.059Z,20.92
2023-04-26T05:03:29.968Z,24.27
2023-04-26T05:05:57.200Z,20.40
2023-04-26T05:08:24.624Z,21.63
2023-04-26T05:10:51.726Z,19.17
2023-04-26T05:13:18.181Z,17.63
2023-04-26T05:15:44.637Z,19.17
2023-04-26T05:18:11.378Z,19.27
2023-04-26T05:20:38.899Z,22.90
2023-04-26T05:23:05.506Z,20.40
2023-04-26T05:25:31.942Z,21.45
2023-04-26T05:28:12.433Z,39.08
2023-04-26T05:30:49.986Z,26.73
2023-04-26T05:33:46.017Z,20.92
2023-04-26T05:36:32.830Z,22.58
2023-04-26T05:38:59.376Z,19.08
2023-04-26T05:41:26.074Z,26.52
2023-04-26T05:43:53.286Z,25.65
2023-04-26T05:46:20.173Z,22.00
2023-04-26T05:48:46.661Z,22.83
2023-04-26T05:51:13.159Z,21.90
2023-04-26T05:53:39.673Z,22.52
2023-04-26T05:56:07.046Z,23.30
2023-04-26T05:58:34.172Z,22.55
2023-04-26T06:01:02.126Z,23.48
2023-04-26T06:03:29.170Z,22.30
2023-04-26T06:05:56.092Z,22.08
2023-04-26T06:08:23.108Z,17.83
2023-04-26T06:10:49.798Z,16.73
2023-04-26T06:13:16.576Z,12.57
2023-04-26T06:15:43.017Z,13.05
2023-04-26T06:18:09.980Z,16.58
2023-04-26T06:20:36.555Z,23.42
2023-04-26T06:23:06.099Z,12.98
2023-04-26T06:25:33.945Z,9.98
2023-04-26T06:28:00.929Z,12.45
2023-04-26T06:30:27.514Z,13.55
2023-04-26T06:32:54.480Z,9.63
2023-04-26T06:35:23.250Z,11.30
2023-04-26T06:37:49.801Z,12.18
2023-04-26T06:40:16.624Z,9.45
2023-04-26T06:42:43.812Z,8.80
2023-04-26T06:45:30.803Z,13.30
2023-04-26T06:47:57.863Z,10.73
2023-04-26T06:50:24.811Z,9.70
2023-04-26T06:52:51.586Z,8.75
2023-04-26T06:55:18.828Z,8.43
2023-04-26T06:57:45.975Z,7.68
2023-04-26T07:00:13.709Z,12.35
2023-04-26T07:02:40.488Z,9.93
2023-04-26T07:05:07.505Z,8.02
2023-04-26T07:07:34.107Z,7.18
2023-04-26T07:10:00.630Z,8.23
2023-04-26T07:12:27.381Z,8.88
2023-04-26T07:14:54.031Z,8.63
2023-04-26T07:17:21.596Z,8.85
2023-04-26T07:19:48.091Z,13.77
2023-04-26T07:22:14.548Z,11.40
2023-04-26T07:24:41.056Z,10.43
2023-04-26T07:27:07.551Z,7.78
2023-04-26T07:29:34.089Z,8.88
2023-04-26T07:32:00.617Z,9.00
2023-04-26T07:34:27.268Z,7.47
2023-04-26T07:36:53.778Z,10.30
2023-04-26T07:39:20.295Z,8.95
2023-04-26T07:41:46.890Z,6.95
2023-04-26T07:44:13.309Z,8.60
2023-04-26T07:46:39.817Z,9.05
2023-04-26T07:49:06.451Z,10.75
2023-04-26T07:51:34.882Z,7.25
2023-04-26T07:54:01.779Z,6.35
2023-04-26T07:56:28.236Z,8.95
2023-04-26T07:58:54.677Z,8.15
2023-04-26T08:01:21.172Z,8.27
2023-04-26T08:03:49.105Z,8.57
2023-04-26T08:06:16.669Z,8.20
2023-04-26T08:08:45.535Z,9.95
2023-04-26T08:11:12.114Z,9.55
2023-04-26T08:13:38.690Z,12.25
2023-04-26T08:16:06.386Z,7.07
2023-04-26T08:18:33.583Z,11.27
2023-04-26T08:21:00.121Z,11.05
2023-04-26T08:23:26.633Z,8.13
2023-04-26T08:25:53.092Z,7.80
2023-04-26T08:28:19.717Z,7.47
2023-04-26T08:30:46.175Z,7.50
2023-04-26T08:33:12.770Z,7.85
2023-04-26T08:35:39.185Z,7.75
2023-04-26T08:38:05.641Z,9.63
2023-04-26T08:40:32.919Z,10.07
2023-04-26T08:42:59.356Z,7.90
2023-04-26T08:45:25.839Z,7.95
2023-04-26T08:48:04.862Z,8.90
2023-04-26T08:50:34.217Z,10.90
2023-04-26T08:53:00.963Z,7.40
2023-04-26T08:55:28.060Z,7.95
2023-04-26T08:57:55.913Z,7.20
2023-04-26T09:00:23.075Z,6.47
2023-04-26T09:02:51.955Z,6.50
2023-04-26T09:05:24.236Z,11.68
2023-04-26T09:07:56.239Z,9.57
2023-04-26T09:10:22.888Z,6.55
2023-04-26T09:12:56.410Z,8.15
2023-04-26T09:15:24.428Z,8.25
2023-04-26T09:17:51.912Z,10.35
2023-04-26T09:20:27.668Z,10.43
2023-04-26T09:23:04.732Z,8.30
2023-04-26T09:25:33.570Z,9.55
2023-04-26T09:28:01.529Z,10.18
2023-04-26T09:30:28.731Z,8.25
2023-04-26T09:32:57.052Z,7.63
2023-04-26T09:35:23.727Z,7.20
2023-04-26T09:38:03.283Z,8.52
2023-04-26T09:40:42.345Z,5.75
2023-04-26T09:43:14.005Z,4.82
2023-04-26T09:48:30.783Z,5.78
2023-04-26T09:50:58.851Z,5.03
2023-04-26T09:53:31.316Z,5.95
2023-04-26T09:56:19.436Z,5.45
2023-04-26T09:58:58.670Z,7.10
2023-04-26T10:01:26.815Z,8.48
2023-04-26T10:03:53.850Z,7.07
2023-04-26T10:06:20.540Z,6.07
2023-04-26T10:08:46.941Z,6.97
2023-04-26T10:11:13.871Z,7.10
2023-04-26T10:13:41.547Z,8.05
2023-04-26T10:16:09.733Z,8.13
2023-04-26T10:18:36.299Z,9.05
2023-04-26T10:21:10.634Z,7.82
2023-04-26T10:23:37.850Z,7.07
2023-04-26T10:26:05.177Z,5.25
2023-04-26T10:28:40.505Z,6.32
2023-04-26T10:31:07.726Z,6.90
2023-04-26T10:33:34.273Z,6.55
2023-04-26T10:36:03.928Z,7.93
2023-04-26T10:38:31.641Z,6.70
2023-04-26T10:41:27.925Z,8.45
2023-04-26T10:43:54.530Z,7.53
2023-04-26T10:46:35.291Z,10.43
2023-04-26T10:49:15.779Z,6.50
2023-04-26T10:52:15.722Z,6.88
2023-04-26T10:54:45.851Z,7.45
2023-04-26T10:57:12.666Z,5.85
2023-04-26T10:59:51.261Z,6.90
2023-04-26T11:05:08.908Z,7.55
2023-04-26T11:07:38.973Z,7.82
2023-04-26T11:10:10.487Z,6.55
2023-04-26T11:12:37.043Z,10.05
2023-04-26T11:15:03.670Z,6.60
2023-04-26T11:17:37.637Z,5.07
2023-04-26T11:20:15.809Z,5.80
2023-04-26T11:22:42.360Z,9.18
2023-04-26T11:25:09.384Z,8.85
2023-04-26T11:27:35.786Z,7.95
2023-04-26T11:30:06.075Z,5.28
2023-04-26T11:32:33.346Z,5.70
2023-04-26T11:35:02.796Z,8.48
2023-04-26T11:37:29.260Z,6.57
2023-04-26T11:39:57.326Z,5.95
2023-04-26T11:42:26.848Z,5.32
2023-04-26T11:44:54.157Z,7.53
2023-04-26T11:47:21.797Z,6.65
2023-04-26T11:49:48.413Z,6.47
2023-04-26T11:52:15.399Z,9.05
2023-04-26T11:54:42.640Z,10.55
2023-04-26T11:57:17.565Z,6.28
2023-04-26T11:59:45.118Z,10.18
2023-04-26T12:02:11.947Z,8.60
2023-04-26T12:04:41.701Z,10.35
2023-04-26T12:07:09.291Z,9.13
2023-04-26T12:09:41.143Z,8.43
2023-04-26T12:12:08.128Z,6.57
2023-04-26T12:14:38.904Z,7.05
2023-04-26T12:17:06.706Z,8.60
2023-04-26T12:19:33.869Z,7.43
2023-04-26T12:22:00.344Z,8.40
2023-04-26T12:24:34.512Z,9.40
2023-04-26T12:27:02.864Z,7.40
2023-04-26T12:29:30.666Z,7.57
2023-04-26T12:31:58.784Z,5.05
2023-04-26T12:34:25.683Z,6.00
2023-04-26T12:36:52.367Z,5.38
2023-04-26T12:39:18.892Z,5.47
2023-04-26T12:41:46.283Z,10.43
2023-04-26T12:44:14.233Z,6.18
2023-04-26T12:46:40.917Z,11.50
2023-04-26T12:49:07.556Z,6.22
2023-04-26T12:51:34.261Z,6.07
2023-04-26T12:54:00.802Z,5.63
2023-04-26T12:56:28.762Z,7.63
2023-04-26T12:58:55.392Z,5.80
2023-04-26T13:01:21.990Z,8.50
2023-04-26T13:03:48.794Z,5.50
2023-04-26T13:06:15.367Z,30.05
2023-04-26T13:08:42.311Z,7.35
2023-04-26T13:11:08.853Z,8.80
2023-04-26T13:13:43.087Z,6.93
2023-04-26T13:16:12.275Z,7.78
2023-04-26T13:18:39.471Z,7.82
2023-04-26T13:21:05.992Z,6.53
2023-04-26T13:23:32.546Z,5.55
2023-04-26T13:25:59.019Z,5.95
2023-04-26T13:28:25.603Z,6.65
2023-04-26T13:30:52.525Z,5.40
2023-04-26T13:33:21.282Z,7.93
2023-04-26T13:35:48.098Z,6.47
2023-04-26T13:38:15.459Z,4.45
2023-04-26T13:40:42.226Z,8.38
2023-04-26T13:43:08.800Z,6.63
2023-04-26T13:45:36.697Z,5.85
2023-04-26T13:48:03.609Z,5.85
2023-04-26T13:50:30.193Z,6.35
2023-04-26T13:52:56.727Z,7.10
2023-04-26T13:55:23.677Z,6.78
2023-04-26T13:57:50.186Z,7.57
2023-04-26T14:00:17.453Z,8.73
2023-04-26T14:02:46.097Z,4.90
2023-04-26T14:05:13.020Z,9.30
2023-04-26T14:07:40.849Z,6.38
2023-04-26T14:10:07.836Z,6.68
2023-04-26T14:12:34.947Z,5.57
2023-04-26T14:15:04.227Z,4.60
2023-04-26T14:17:32.285Z,8.05
2023-04-26T14:19:58.809Z,5.47
2023-04-26T14:22:27.023Z,7.97
2023-04-26T14:24:53.555Z,5.88
2023-04-26T14:27:20.228Z,5.63
2023-04-26T14:29:46.731Z,6.57
2023-04-26T14:32:13.259Z,5.63
2023-04-26T14:34:40.003Z,7.53
2023-04-26T14:37:06.899Z,9.10
2023-04-26T14:39:33.605Z,5.70
2023-04-26T14:42:00.136Z,4.93
2023-04-26T14:44:27.245Z,5.97
2023-04-26T14:46:53.704Z,7.00
2023-04-26T14:49:20.474Z,7.40
2023-04-26T14:51:46.976Z,6.03
2023-04-26T14:54:13.496Z,8.10
2023-04-26T14:56:40.000Z,8.63
2023-04-26T14:59:06.548Z,5.47
2023-04-26T15:01:33.043Z,7.03
2023-04-26T15:04:00.983Z,4.97
2023-04-26T15:06:28.689Z,7.28
2023-04-26T15:08:55.138Z,8.90
2023-04-26T15:11:21.651Z,6.80
2023-04-26T15:13:48.157Z,7.72
2023-04-26T15:16:14.664Z,4.72
2023-04-26T15:18:41.308Z,9.50
2023-04-26T15:21:07.782Z,6.22
2023-04-26T15:23:34.228Z,6.82
2023-04-26T15:26:04.264Z,5.47
2023-04-26T15:28:31.000Z,4.78
2023-04-26T15:31:05.389Z,5.22
2023-04-26T15:33:31.902Z,6.05
2023-04-26T15:35:58.429Z,6.50
2023-04-26T15:38:24.857Z,7.07
2023-04-26T15:40:51.437Z,5.90
2023-04-26T15:43:18.150Z,5.60
2023-04-26T15:45:45.022Z,6.10
2023-04-26T15:48:12.087Z,5.35
2023-04-26T15:50:38.584Z,5.78
2023-04-26T15:53:05.108Z,5.53
2023-04-26T15:55:35.018Z,7.43
2023-04-26T15:58:01.720Z,6.85
2023-04-26T16:00:28.446Z,5.03
2023-04-26T16:02:55.118Z,8.38
2023-04-26T16:05:21.703Z,5.43
2023-04-26T16:07:48.183Z,7.45
2023-04-26T16:10:14.718Z,9.32
2023-04-26T16:12:42.140Z,6.55
2023-04-26T16:15:09.762Z,5.45
2023-04-26T16:17:37.262Z,4.78
2023-04-26T16:20:06.644Z,5.30
2023-04-26T16:22:33.582Z,5.35
2023-04-26T16:25:00.240Z,4.60
2023-04-26T16:27:27.320Z,8.25
2023-04-26T16:29:54.384Z,3.22
2023-04-26T16:32:21.247Z,6.30
2023-04-26T16:34:47.962Z,4.10
2023-04-26T16:37:14.728Z,5.85
2023-04-26T16:39:41.240Z,8.07
2023-04-26T16:42:07.694Z,5.95
2023-04-26T16:44:34.279Z,6.55
2023-04-26T16:47:01.583Z,5.25
2023-04-26T16:49:28.268Z,4.53
2023-04-26T16:51:58.683Z,7.40
2023-04-26T16:54:28.378Z,8.73
2023-04-26T16:56:54.902Z,7.82
2023-04-26T16:59:21.414Z,4.22
2023-04-26T17:01:48.038Z,6.82
2023-04-26T17:04:14.767Z,4.32
2023-04-26T17:06:41.451Z,5.20
2023-04-26T17:09:08.662Z,4.75
2023-04-26T17:11:37.311Z,5.53
2023-04-26T17:14:04.368Z,5.28
2023-04-26T17:16:31.182Z,5.30
2023-04-26T17:18:58.207Z,8.93
2023-04-26T17:21:24.695Z,5.07
2023-04-26T17:23:51.531Z,6.55
2023-04-26T17:26:18.119Z,4.72
2023-04-26T17:28:44.586Z,4.13
2023-04-26T17:31:11.165Z,5.30
2023-04-26T17:33:37.759Z,6.25
2023-04-26T17:36:04.660Z,4.47
2023-04-26T17:38:31.232Z,6.32
2023-04-26T17:40:57.672Z,4.18
2023-04-26T17:43:24.104Z,4.68
2023-04-26T17:45:50.620Z,3.13
2023-04-26T17:48:17.160Z,4.53
2023-04-26T17:50:43.766Z,5.78
2023-04-26T17:53:10.708Z,7.38
2023-04-26T17:55:37.427Z,6.18
2023-04-26T17:58:03.924Z,4.85
2023-04-26T18:00:30.475Z,9.05
2023-04-26T18:02:57.995Z,9.30
2023-04-26T18:05:25.018Z,7.47
2023-04-26T18:07:51.736Z,5.18
2023-04-26T18:10:18.358Z,6.85
2023-04-26T18:12:44.828Z,6.18
2023-04-26T18:15:12.214Z,6.55
2023-04-26T18:17:38.742Z,5.88
2023-04-26T18:20:06.663Z,4.40
2023-04-26T18:22:33.176Z,8.02
2023-04-26T18:24:59.714Z,5.28
2023-04-26T18:27:26.599Z,6.38
2023-04-26T18:29:53.044Z,5.70
2023-04-26T18:32:19.498Z,7.38
2023-04-26T18:34:46.396Z,8.10
2023-04-26T18:37:12.792Z,5.38
2023-04-26T18:39:39.277Z,8.00
2023-04-26T18:42:05.918Z,11.43
2023-04-26T18:44:32.549Z,9.15
2023-04-26T18:46:59.284Z,5.95
2023-04-26T18:49:27.125Z,6.93
2023-04-26T18:51:53.815Z,6.95
2023-04-26T18:54:20.434Z,4.55
2023-04-26T18:56:46.934Z,6.97
2023-04-26T18:59:13.562Z,8.63
2023-04-26T19:01:40.928Z,7.10
2023-04-26T19:04:08.975Z,5.03
2023-04-26T19:06:35.712Z,5.65
2023-04-26T19:09:02.391Z,4.93
2023-04-26T19:11:28.851Z,4.40
2023-04-26T19:13:55.490Z,7.03
2023-04-26T19:16:22.440Z,6.38
2023-04-26T19:18:49.097Z,9.60
2023-04-26T19:21:16.155Z,6.97
2023-04-26T19:23:44.327Z,7.75
2023-04-26T19:26:15.192Z,6.90
2023-04-26T19:28:42.273Z,8.38
2023-04-26T19:31:08.761Z,7.25
2023-04-26T19:33:35.267Z,6.57
2023-04-26T19:36:01.706Z,5.93
2023-04-26T19:38:28.722Z,10.85
2023-04-26T19:40:55.170Z,8.18
2023-04-26T19:43:21.718Z,9.38
2023-04-26T19:45:48.233Z,7.15
2023-04-26T19:48:14.907Z,10.45
2023-04-26T19:50:42.873Z,6.82
2023-04-26T19:53:10.319Z,6.18
2023-04-26T19:55:40.904Z,8.48
2023-04-26T19:58:08.006Z,4.53
2023-04-26T20:00:38.813Z,9.80
2023-04-26T20:03:05.872Z,8.73
2023-04-26T20:05:33.527Z,7.25
2023-04-26T20:08:00.227Z,6.03
2023-04-26T20:10:30.676Z,7.30
2023-04-26T20:12:57.162Z,7.25
2023-04-26T20:15:24.218Z,8.07
2023-04-26T20:17:50.888Z,7.07
2023-04-26T20:20:17.517Z,7.38
2023-04-26T20:22:44.363Z,6.57
2023-04-26T20:25:10.966Z,6.30
2023-04-26T20:27:37.646Z,5.22
2023-04-26T20:30:04.695Z,5.15
2023-04-26T20:32:31.394Z,6.97
2023-04-26T20:34:58.128Z,11.38
2023-04-26T20:37:24.560Z,7.25
2023-04-26T20:39:51.263Z,6.63
2023-04-26T20:42:17.743Z,10.05
2023-04-26T20:44:44.265Z,9.45
2023-04-26T20:47:10.712Z,7.25
2023-04-26T20:49:37.267Z,8.05
2023-04-26T20:52:04.039Z,8.57
2023-04-26T20:54:31.747Z,6.55
2023-04-26T20:56:58.273Z,6.97
2023-04-26T20:59:25.611Z,7.20
2023-04-26T21:01:54.847Z,8.48
2023-04-26T21:04:21.901Z,9.13
2023-04-26T21:06:48.610Z,10.10
2023-04-26T21:09:15.209Z,8.00
2023-04-26T21:11:42.329Z,11.25
2023-04-26T21:14:09.191Z,7.18
2023-04-26T21:16:36.132Z,6.35
2023-04-26T21:19:03.402Z,6.85
2023-04-26T21:21:30.061Z,6.88
2023-04-26T21:23:56.530Z,7.05
2023-04-26T21:26:23.047Z,5.68
2023-04-26T21:28:49.648Z,5.85
2023-04-26T21:31:16.130Z,8.30
2023-04-26T21:33:42.618Z,4.47
2023-04-26T21:36:09.283Z,6.63
2023-04-26T21:38:35.790Z,7.10
2023-04-26T21:41:02.215Z,8.68
2023-04-26T21:43:28.718Z,6.60
2023-04-26T21:45:58.665Z,8.02
2023-04-26T21:48:26.170Z,9.55
2023-04-26T21:50:52.746Z,6.20
2023-04-26T21:53:19.240Z,6.88
2023-04-26T21:55:51.620Z,6.47
2023-04-26T21:58:18.816Z,7.72
2023-04-26T22:00:45.439Z,7.78
2023-04-26T22:03:12.601Z,6.07
2023-04-26T22:05:39.259Z,7.15
2023-04-26T22:08:06.096Z,7.68
2023-04-26T22:10:32.703Z,5.90
2023-04-26T22:12:59.534Z,11.60
2023-04-26T22:15:26.123Z,4.65
2023-04-26T22:17:52.620Z,7.03
2023-04-26T22:20:19.103Z,5.78
2023-04-26T22:22:46.108Z,8.02
2023-04-26T22:25:12.519Z,5.45
2023-04-26T22:27:38.942Z,6.00
2023-04-26T22:30:22.865Z,10.20
2023-04-26T22:32:53.592Z,6.68
2023-04-26T22:35:21.725Z,6.57
2023-04-26T22:37:48.277Z,5.65
2023-04-26T22:40:16.119Z,7.05
2023-04-26T22:42:43.591Z,8.18
2023-04-26T22:45:11.970Z,8.18
2023-04-26T22:47:39.277Z,7.50
2023-04-26T22:50:07.385Z,8.20
2023-04-26T22:52:34.382Z,7.70
2023-04-26T22:55:00.934Z,7.72
2023-04-26T22:57:28.777Z,9.60
2023-04-26T22:59:55.372Z,6.53
2023-04-26T23:02:21.880Z,7.90
2023-04-26T23:04:48.436Z,7.80
2023-04-26T23:07:14.941Z,7.80
2023-04-26T23:09:41.513Z,7.63
2023-04-26T23:12:08.027Z,6.18
2023-04-26T23:14:35.086Z,6.43
2023-04-26T23:17:02.631Z,9.15
2023-04-26T23:19:29.250Z,7.50
2023-04-26T23:21:55.720Z,9.13
2023-04-26T23:24:22.155Z,8.40
2023-04-26T23:26:48.609Z,6.80
2023-04-26T23:29:15.381Z,6.32
2023-04-26T23:31:42.121Z,9.20
2023-04-26T23:34:08.676Z,10.55
2023-04-26T23:36:35.474Z,6.53
2023-04-26T23:39:01.934Z,5.63
2023-04-26T23:41:28.413Z,5.10
2023-04-26T23:43:54.789Z,6.55
2023-04-26T23:46:21.277Z,9.00
2023-04-26T23:48:47.749Z,7.70
2023-04-26T23:51:14.158Z,7.90
2023-04-26T23:53:40.553Z,7.78
2023-04-26T23:56:07.696Z,7.60
2023-04-26T23:58:34.226Z,7.72
